Time;durP1;ratioP1;P1;durP2;ratioP2;P2;SDS_P1;SDS_P2;PMS_P1;PMS_P2;Temp;Humidity;BMP_temperature;BMP_pressure;BME280_temperature;BME280_humidity;BME280_pressure;Samples;Min_cycle;Max_cycle;Signal;HPM_P1;HPM_P2
2021/09/13 00:00:17;;;;;;;11.23;7.88;;;;;;;;;;4955836;29;20392;-84
2021/09/13 00:02:43;;;;;;;11.15;7.85;;;;;;;;;;4955254;29;20051;-83
2021/09/13 00:05:09;;;;;;;10.20;7.03;;;;;;;;;;4956968;28;20027;-83
2021/09/13 00:07:36;;;;;;;16.95;7.18;;;;;;;;;;4956932;28;20353;-82
2021/09/13 00:10:02;;;;;;;10.88;7.15;;;;;;;;;;4956930;28;20059;-82
2021/09/13 00:12:29;;;;;;;11.18;7.45;;;;;;;;;;4956871;28;20031;-82
2021/09/13 00:14:55;;;;;;;10.75;7.35;;;;;;;;;;4956667;28;20027;-84
2021/09/13 00:17:21;;;;;;;9.95;7.55;;;;;;;;;;4955645;28;20472;-85
2021/09/13 00:19:47;;;;;;;10.80;7.47;;;;;;;;;;4955333;29;20038;-82
2021/09/13 00:22:13;;;;;;;11.90;6.03;;;;;;;;;;4955376;29;20026;-83
2021/09/13 00:24:40;;;;;;;12.27;6.63;;;;;;;;;;4956633;28;20038;-82
2021/09/13 00:27:07;;;;;;;11.25;7.80;;;;;;;;;;4955868;28;20026;-82
2021/09/13 00:29:33;;;;;;;10.13;7.40;;;;;;;;;;4956183;28;20042;-83
2021/09/13 00:31:59;;;;;;;9.98;6.95;;;;;;;;;;4956647;28;20472;-83
2021/09/13 00:34:26;;;;;;;12.90;8.63;;;;;;;;;;4955260;28;20027;-84
2021/09/13 00:36:52;;;;;;;9.25;6.38;;;;;;;;;;4956232;28;20440;-83
2021/09/13 00:39:18;;;;;;;12.52;7.57;;;;;;;;;;4956401;28;20031;-82
2021/09/13 00:41:44;;;;;;;11.05;7.35;;;;;;;;;;4956379;28;20078;-84
2021/09/13 00:44:11;;;;;;;11.68;7.07;;;;;;;;;;4954594;28;20101;-82
2021/09/13 00:46:37;;;;;;;13.77;7.70;;;;;;;;;;4954897;29;20035;-83
2021/09/13 00:49:03;;;;;;;10.68;7.78;;;;;;;;;;4954849;29;20062;-85
2021/09/13 00:51:30;;;;;;;10.40;5.80;;;;;;;;;;4954932;29;20391;-82
2021/09/13 00:53:56;;;;;;;12.23;7.70;;;;;;;;;;4956106;28;20035;-83
2021/09/13 00:56:22;;;;;;;11.95;8.00;;;;;;;;;;4954663;29;20034;-82
2021/09/13 00:58:51;;;;;;;11.07;7.53;;;;;;;;;;4956022;28;20050;-84
2021/09/13 01:01:17;;;;;;;10.43;6.43;;;;;;;;;;4954747;29;20039;-82
2021/09/13 01:03:44;;;;;;;14.52;7.80;;;;;;;;;;4954508;28;20058;-82
2021/09/13 01:06:10;;;;;;;11.50;7.75;;;;;;;;;;4954617;29;20031;-84
2021/09/13 01:08:36;;;;;;;10.27;7.28;;;;;;;;;;4954434;28;20034;-83
2021/09/13 01:11:03;;;;;;;10.98;6.68;;;;;;;;;;4954561;29;20118;-84
2021/09/13 01:13:29;;;;;;;13.50;7.90;;;;;;;;;;4954592;29;20089;-85
2021/09/13 01:15:56;;;;;;;10.93;7.03;;;;;;;;;;4955977;28;20034;-82
2021/09/13 01:18:22;;;;;;;11.73;7.72;;;;;;;;;;4954288;29;20404;-83
2021/09/13 01:20:48;;;;;;;13.75;7.45;;;;;;;;;;4955672;28;20395;-82
2021/09/13 01:23:26;;;;;;;9.35;5.63;;;;;;;;;;4955717;28;20019;-83
2021/09/13 01:25:53;;;;;;;12.85;8.10;;;;;;;;;;4954340;29;20019;-84
2021/09/13 01:28:19;;;;;;;10.18;5.65;;;;;;;;;;4954162;28;20033;-83
2021/09/13 01:30:46;;;;;;;11.50;7.93;;;;;;;;;;4954192;29;20114;-82
2021/09/13 01:33:12;;;;;;;12.70;7.93;;;;;;;;;;4955514;28;20031;-82
2021/09/13 01:35:38;;;;;;;11.82;6.38;;;;;;;;;;4955115;28;20134;-84
2021/09/13 01:38:05;;;;;;;12.10;7.40;;;;;;;;;;4954051;28;20035;-82
2021/09/13 01:40:31;;;;;;;11.48;7.60;;;;;;;;;;4953849;28;20033;-82
2021/09/13 01:43:01;;;;;;;11.35;7.50;;;;;;;;;;4955443;28;20093;-82
2021/09/13 01:45:27;;;;;;;10.80;7.57;;;;;;;;;;4954116;28;20414;-82
2021/09/13 01:47:54;;;;;;;13.05;5.53;;;;;;;;;;4955303;28;20023;-82
2021/09/13 01:50:20;;;;;;;13.20;7.40;;;;;;;;;;4955128;28;20035;-84
2021/09/13 01:52:46;;;;;;;9.77;6.28;;;;;;;;;;4954038;28;20114;-83
2021/09/13 01:55:13;;;;;;;9.10;6.05;;;;;;;;;;4954010;29;20038;-82
2021/09/13 01:57:39;;;;;;;10.73;7.60;;;;;;;;;;4955087;28;20050;-83
2021/09/13 02:00:07;;;;;;;12.63;7.72;;;;;;;;;;4955093;28;20046;-82
2021/09/13 02:02:33;;;;;;;7.75;5.20;;;;;;;;;;4953800;29;20511;-82
2021/09/13 02:04:59;;;;;;;11.20;7.50;;;;;;;;;;4953916;29;20027;-82
2021/09/13 02:07:25;;;;;;;12.55;7.47;;;;;;;;;;4954973;28;20023;-83
2021/09/13 02:09:53;;;;;;;7.22;4.70;;;;;;;;;;4953920;29;20031;-83
2021/09/13 02:12:20;;;;;;;11.48;7.05;;;;;;;;;;4955124;28;20026;-82
2021/09/13 02:14:46;;;;;;;11.52;5.95;;;;;;;;;;4955309;28;20103;-83
2021/09/13 02:17:13;;;;;;;12.55;8.35;;;;;;;;;;4954770;28;20079;-83
2021/09/13 02:19:39;;;;;;;8.88;5.70;;;;;;;;;;4954052;28;20030;-83
2021/09/13 02:22:05;;;;;;;12.25;8.57;;;;;;;;;;4955203;28;20465;-83
2021/09/13 02:24:32;;;;;;;12.25;8.10;;;;;;;;;;4955089;28;20125;-82
2021/09/13 02:26:58;;;;;;;10.15;7.30;;;;;;;;;;4953589;29;20034;-84
2021/09/13 02:29:25;;;;;;;10.32;6.22;;;;;;;;;;4953832;29;20120;-82
2021/09/13 02:31:51;;;;;;;11.40;7.65;;;;;;;;;;4953796;28;20035;-84
2021/09/13 02:34:18;;;;;;;10.50;7.60;;;;;;;;;;4953759;28;20046;-83
2021/09/13 02:36:44;;;;;;;11.52;5.38;;;;;;;;;;4954971;28;20381;-82
2021/09/13 02:39:10;;;;;;;12.57;7.22;;;;;;;;;;4954859;28;20042;-82
2021/09/13 02:41:37;;;;;;;9.82;6.00;;;;;;;;;;4954631;28;20031;-83
2021/09/13 02:44:04;;;;;;;10.60;6.97;;;;;;;;;;4953560;28;20384;-82
2021/09/13 02:46:30;;;;;;;10.88;6.85;;;;;;;;;;4954875;28;20377;-84
2021/09/13 02:48:56;;;;;;;13.20;6.43;;;;;;;;;;4953442;29;20035;-82
2021/09/13 02:51:23;;;;;;;11.32;7.32;;;;;;;;;;4956090;28;20031;-82
2021/09/13 02:53:49;;;;;;;11.55;6.40;;;;;;;;;;4956981;28;20513;-83
2021/09/13 02:56:15;;;;;;;10.82;7.18;;;;;;;;;;4956957;28;20388;-83
2021/09/13 02:58:41;;;;;;;13.35;8.25;;;;;;;;;;4956948;28;20176;-83
2021/09/13 03:01:07;;;;;;;11.85;6.47;;;;;;;;;;4956943;29;20024;-84
2021/09/13 03:03:33;;;;;;;9.63;6.63;;;;;;;;;;4956427;28;20412;-83
2021/09/13 03:06:00;;;;;;;15.30;8.45;;;;;;;;;;4958109;28;20055;-82
2021/09/13 03:08:26;;;;;;;10.82;5.80;;;;;;;;;;4958093;28;20031;-83
2021/09/13 03:10:53;;;;;;;12.10;6.45;;;;;;;;;;4956743;29;20063;-83
2021/09/13 03:13:19;;;;;;;11.30;6.75;;;;;;;;;;4958010;28;20475;-82
2021/09/13 03:15:45;;;;;;;11.32;6.78;;;;;;;;;;4957772;28;20432;-83
2021/09/13 03:18:11;;;;;;;11.48;8.07;;;;;;;;;;4956569;29;20039;-85
2021/09/13 03:20:38;;;;;;;11.02;6.07;;;;;;;;;;4956624;29;20034;-85
2021/09/13 03:23:04;;;;;;;11.48;6.85;;;;;;;;;;4957666;28;20070;-82
2021/09/13 03:25:30;;;;;;;14.30;8.27;;;;;;;;;;4956505;28;20038;-81
2021/09/13 03:27:58;;;;;;;13.70;6.75;;;;;;;;;;4956490;29;20031;-83
2021/09/13 03:30:25;;;;;;;10.00;6.03;;;;;;;;;;4957734;28;20581;-82
2021/09/13 03:32:51;;;;;;;9.90;6.93;;;;;;;;;;4957665;28;20440;-83
2021/09/13 03:35:17;;;;;;;9.10;5.38;;;;;;;;;;4957330;28;20401;-83
2021/09/13 03:37:44;;;;;;;12.82;8.63;;;;;;;;;;4956186;29;20038;-83
2021/09/13 03:40:10;;;;;;;13.15;8.65;;;;;;;;;;4956293;29;20039;-83
2021/09/13 03:42:37;;;;;;;11.52;5.75;;;;;;;;;;4956555;29;20024;-83
2021/09/13 03:45:03;;;;;;;11.25;7.97;;;;;;;;;;4957732;28;20035;-82
2021/09/13 03:47:30;;;;;;;11.93;5.85;;;;;;;;;;4956061;28;20034;-82
2021/09/13 03:49:56;;;;;;;10.93;6.72;;;;;;;;;;4957189;28;20038;-82
2021/09/13 03:52:22;;;;;;;13.00;8.65;;;;;;;;;;4957180;28;20031;-83
2021/09/13 03:54:48;;;;;;;15.18;7.63;;;;;;;;;;4957441;28;20035;-82
2021/09/13 03:57:14;;;;;;;13.05;7.75;;;;;;;;;;4955791;28;20023;-83
2021/09/13 03:59:41;;;;;;;17.88;6.63;;;;;;;;;;4955946;29;20027;-83
2021/09/13 04:02:07;;;;;;;13.35;8.23;;;;;;;;;;4956943;28;20046;-85
2021/09/13 04:04:34;;;;;;;14.55;7.78;;;;;;;;;;4955778;29;20031;-83
2021/09/13 04:07:23;;;;;;;13.55;6.93;;;;;;;;;;4955690;29;20483;-83
2021/09/13 04:12:21;;;;;;;10.35;6.57;;;;;;;;;;4956713;28;20027;-84
2021/09/13 04:14:47;;;;;;;11.35;7.07;;;;;;;;;;4955628;29;20035;-83
2021/09/13 04:17:13;;;;;;;13.63;5.63;;;;;;;;;;4955424;28;20530;-82
2021/09/13 04:19:40;;;;;;;12.00;7.95;;;;;;;;;;4956965;28;20035;-83
2021/09/13 04:22:06;;;;;;;12.05;7.18;;;;;;;;;;4956783;28;20031;-82
2021/09/13 04:24:32;;;;;;;12.52;8.13;;;;;;;;;;4955307;28;20023;-83
2021/09/13 04:26:58;;;;;;;9.50;5.95;;;;;;;;;;4956559;28;20031;-83
2021/09/13 04:29:24;;;;;;;11.35;6.45;;;;;;;;;;4956671;29;20027;-83
2021/09/13 04:31:51;;;;;;;14.43;8.82;;;;;;;;;;4956347;28;20030;-85
2021/09/13 04:34:18;;;;;;;11.05;6.28;;;;;;;;;;4955217;28;20031;-83
2021/09/13 04:36:44;;;;;;;13.30;8.25;;;;;;;;;;4955064;28;20027;-83
2021/09/13 04:39:10;;;;;;;11.50;6.05;;;;;;;;;;4955203;28;20070;-82
2021/09/13 04:41:36;;;;;;;13.27;8.68;;;;;;;;;;4955328;29;20023;-82
2021/09/13 04:44:03;;;;;;;13.20;7.57;;;;;;;;;;4954840;28;20126;-83
2021/09/13 04:46:29;;;;;;;12.05;7.28;;;;;;;;;;4955051;29;20027;-83
2021/09/13 04:48:55;;;;;;;11.68;5.93;;;;;;;;;;4956130;28;20054;-83
2021/09/13 04:51:22;;;;;;;19.80;8.02;;;;;;;;;;4954852;28;20028;-83
2021/09/13 04:53:48;;;;;;;12.25;6.18;;;;;;;;;;4976146;28;20067;-82
2021/09/13 04:56:14;;;;;;;12.90;8.15;;;;;;;;;;4975262;28;20030;-81
2021/09/13 04:58:40;;;;;;;11.80;6.13;;;;;;;;;;4973867;28;20042;-82
2021/09/13 05:01:08;;;;;;;12.70;7.05;;;;;;;;;;4974064;28;20455;-82
2021/09/13 05:03:34;;;;;;;8.95;5.22;;;;;;;;;;4973817;28;20078;-82
2021/09/13 05:06:00;;;;;;;12.20;7.53;;;;;;;;;;4975217;28;20090;-82
2021/09/13 05:08:27;;;;;;;10.77;7.00;;;;;;;;;;4973880;28;20483;-82
2021/09/13 05:10:53;;;;;;;11.50;7.63;;;;;;;;;;4973793;28;20033;-82
2021/09/13 05:13:19;;;;;;;14.55;6.90;;;;;;;;;;4973439;28;20027;-82
2021/09/13 05:15:45;;;;;;;11.68;7.90;;;;;;;;;;4973838;28;20023;-81
2021/09/13 05:18:11;;;;;;;12.30;7.80;;;;;;;;;;4973672;28;20073;-82
2021/09/13 05:20:37;;;;;;;11.93;7.80;;;;;;;;;;4973784;28;20189;-82
2021/09/13 05:23:03;;;;;;;18.70;8.30;;;;;;;;;;4973745;28;20042;-83
2021/09/13 05:25:29;;;;;;;12.43;8.05;;;;;;;;;;4973674;28;20026;-82
2021/09/13 05:27:56;;;;;;;11.95;7.65;;;;;;;;;;4973641;28;20395;-81
2021/09/13 05:30:22;;;;;;;14.88;8.60;;;;;;;;;;4973700;28;20022;-82
2021/09/13 05:32:48;;;;;;;14.65;8.57;;;;;;;;;;4973448;28;20037;-82
2021/09/13 05:35:14;;;;;;;17.33;8.23;;;;;;;;;;4973533;28;20027;-83
2021/09/13 05:37:40;;;;;;;14.90;8.15;;;;;;;;;;4973393;28;20031;-82
2021/09/13 05:40:07;;;;;;;14.23;8.43;;;;;;;;;;4973431;28;20027;-82
2021/09/13 05:42:34;;;;;;;14.90;7.60;;;;;;;;;;4973423;28;20049;-82
2021/09/13 05:45:00;;;;;;;17.23;8.32;;;;;;;;;;4973368;28;20026;-82
2021/09/13 05:47:26;;;;;;;13.80;8.02;;;;;;;;;;4973518;28;20035;-82
2021/09/13 05:49:52;;;;;;;14.00;8.70;;;;;;;;;;4973307;28;20469;-81
2021/09/13 05:52:18;;;;;;;12.75;7.85;;;;;;;;;;4973490;28;20027;-82
2021/09/13 05:54:44;;;;;;;12.32;8.23;;;;;;;;;;4973435;28;20033;-82
2021/09/13 05:57:10;;;;;;;15.88;7.63;;;;;;;;;;4973561;28;20027;-83
2021/09/13 05:59:37;;;;;;;15.63;6.80;;;;;;;;;;4973224;28;20035;-83
2021/09/13 06:02:03;;;;;;;11.38;6.40;;;;;;;;;;4974504;28;20043;-83
2021/09/13 06:04:32;;;;;;;9.73;5.20;;;;;;;;;;4973335;28;20094;-83
2021/09/13 06:06:58;;;;;;;10.30;4.03;;;;;;;;;;4973112;28;20031;-84
2021/09/13 06:09:24;;;;;;;5.35;3.28;;;;;;;;;;4973228;28;20027;-83
2021/09/13 06:11:50;;;;;;;9.77;4.18;;;;;;;;;;4973289;28;20030;-83
2021/09/13 06:14:16;;;;;;;7.25;3.58;;;;;;;;;;4973166;28;20022;-83
2021/09/13 06:16:43;;;;;;;14.18;4.60;;;;;;;;;;4973170;28;20053;-84
2021/09/13 06:19:09;;;;;;;7.90;4.93;;;;;;;;;;4972959;28;20576;-84
2021/09/13 06:21:36;;;;;;;8.20;4.80;;;;;;;;;;4973124;28;20018;-82
2021/09/13 06:24:02;;;;;;;7.43;3.78;;;;;;;;;;4973077;28;20391;-82
2021/09/13 06:26:28;;;;;;;12.85;4.95;;;;;;;;;;4975072;28;20081;-83
2021/09/13 06:28:55;;;;;;;9.77;4.60;;;;;;;;;;4976919;28;20484;-82
2021/09/13 06:31:21;;;;;;;6.13;3.88;;;;;;;;;;4978488;28;20077;-82
2021/09/13 06:33:47;;;;;;;6.50;4.20;;;;;;;;;;4976920;28;20027;-82
2021/09/13 06:36:13;;;;;;;9.43;3.90;;;;;;;;;;4977017;28;20038;-82
2021/09/13 06:38:39;;;;;;;8.40;4.57;;;;;;;;;;4976874;28;20045;-82
2021/09/13 06:41:06;;;;;;;7.90;4.70;;;;;;;;;;4977908;28;20039;-82
2021/09/13 06:43:33;;;;;;;7.30;4.57;;;;;;;;;;4976953;28;20090;-82
2021/09/13 06:46:13;;;;;;;6.63;4.45;;;;;;;;;;4976585;28;20033;-83
2021/09/13 06:48:41;;;;;;;7.07;4.47;;;;;;;;;;4976529;28;20023;-82
2021/09/13 06:51:07;;;;;;;6.55;4.32;;;;;;;;;;4976535;28;20037;-84
2021/09/13 06:53:33;;;;;;;6.20;3.95;;;;;;;;;;4975393;28;20066;-83
2021/09/13 06:56:02;;;;;;;8.80;4.85;;;;;;;;;;4976266;28;20027;-86
2021/09/13 06:58:31;;;;;;;6.55;3.90;;;;;;;;;;4977648;28;20042;-83
2021/09/13 07:00:58;;;;;;;9.80;4.90;;;;;;;;;;4976438;28;20054;-83
2021/09/13 07:03:25;;;;;;;7.38;5.00;;;;;;;;;;4976107;28;20054;-84
2021/09/13 07:05:51;;;;;;;9.48;4.82;;;;;;;;;;4977895;28;20027;-85
2021/09/13 07:08:17;;;;;;;8.43;5.00;;;;;;;;;;4976203;28;20117;-84
2021/09/13 07:10:43;;;;;;;6.20;4.28;;;;;;;;;;4976570;28;20105;-84
2021/09/13 07:13:10;;;;;;;7.15;4.55;;;;;;;;;;4977620;28;20035;-85
2021/09/13 07:15:36;;;;;;;6.43;4.80;;;;;;;;;;4976524;28;20031;-85
2021/09/13 07:18:02;;;;;;;6.43;4.20;;;;;;;;;;4975869;28;20070;-86
2021/09/13 07:20:28;;;;;;;8.20;4.15;;;;;;;;;;4976076;28;20030;-84
2021/09/13 07:22:54;;;;;;;5.68;3.90;;;;;;;;;;4975935;28;20050;-85
2021/09/13 07:25:20;;;;;;;6.07;4.40;;;;;;;;;;4976132;28;20026;-84
2021/09/13 07:27:46;;;;;;;8.15;4.25;;;;;;;;;;4976970;28;20395;-84
2021/09/13 07:30:13;;;;;;;7.32;4.50;;;;;;;;;;4976066;28;20037;-84
2021/09/13 07:32:39;;;;;;;5.50;4.47;;;;;;;;;;4975822;28;20054;-85
2021/09/13 07:35:07;;;;;;;7.45;4.45;;;;;;;;;;4975691;28;20035;-83
2021/09/13 07:37:33;;;;;;;6.22;4.40;;;;;;;;;;4975252;28;20394;-84
2021/09/13 07:39:59;;;;;;;7.75;4.35;;;;;;;;;;4975723;28;20038;-85
2021/09/13 07:42:25;;;;;;;6.75;4.65;;;;;;;;;;4975385;28;20029;-84
2021/09/13 07:44:51;;;;;;;6.82;4.45;;;;;;;;;;4975446;28;20030;-84
2021/09/13 07:47:19;;;;;;;5.57;3.80;;;;;;;;;;4976838;28;20149;-83
2021/09/13 07:49:45;;;;;;;5.97;3.90;;;;;;;;;;4975396;28;20391;-84
2021/09/13 07:52:11;;;;;;;5.85;4.18;;;;;;;;;;4976944;28;20026;-84
2021/09/13 07:54:39;;;;;;;5.38;3.65;;;;;;;;;;4975779;28;20488;-89
2021/09/13 07:57:05;;;;;;;5.88;3.92;;;;;;;;;;4976149;28;20033;-84
2021/09/13 07:59:31;;;;;;;4.63;3.53;;;;;;;;;;4975791;28;20046;-85
2021/09/13 08:01:57;;;;;;;7.45;4.20;;;;;;;;;;4975278;28;20109;-83
2021/09/13 08:04:23;;;;;;;4.28;3.45;;;;;;;;;;4975540;28;20033;-85
2021/09/13 08:06:49;;;;;;;4.45;3.63;;;;;;;;;;4975523;28;20031;-88
2021/09/13 08:09:16;;;;;;;6.03;3.30;;;;;;;;;;4976213;28;20439;-84
2021/09/13 08:11:42;;;;;;;3.50;2.83;;;;;;;;;;4975462;28;20030;-86
2021/09/13 08:14:08;;;;;;;4.20;3.00;;;;;;;;;;4975257;28;20038;-84
2021/09/13 08:16:35;;;;;;;6.65;3.42;;;;;;;;;;4975447;28;20023;-89
2021/09/13 08:19:03;;;;;;;4.65;3.60;;;;;;;;;;4975257;28;20093;-85
2021/09/13 08:21:29;;;;;;;5.63;3.08;;;;;;;;;;4975861;28;20027;-83
2021/09/13 08:23:56;;;;;;;6.03;3.20;;;;;;;;;;4975466;28;20066;-85
2021/09/13 08:26:22;;;;;;;4.38;2.80;;;;;;;;;;4974828;28;20023;-85
2021/09/13 08:28:49;;;;;;;4.15;2.60;;;;;;;;;;4974798;28;20034;-89
2021/09/13 08:31:15;;;;;;;3.53;2.50;;;;;;;;;;4975625;28;20018;-83
2021/09/13 08:33:41;;;;;;;3.58;2.65;;;;;;;;;;4974916;28;20037;-84
2021/09/13 08:36:07;;;;;;;4.40;3.20;;;;;;;;;;4974884;28;20018;-84
2021/09/13 08:38:33;;;;;;;4.05;2.90;;;;;;;;;;4974894;28;20391;-88
2021/09/13 08:41:00;;;;;;;3.42;2.80;;;;;;;;;;4974758;28;20483;-84
2021/09/13 08:43:26;;;;;;;3.80;3.30;;;;;;;;;;4975507;28;20037;-86
2021/09/13 08:45:59;;;;;;;5.30;2.90;;;;;;;;;;4975015;28;20518;-87
2021/09/13 08:48:36;;;;;;;4.65;3.35;;;;;;;;;;4973597;28;20050;-83
2021/09/13 08:51:29;;;;;;;5.13;3.00;;;;;;;;;;4974647;28;20533;-84
2021/09/13 08:53:55;;;;;;;4.90;2.75;;;;;;;;;;4974756;28;20110;-84
2021/09/13 08:56:29;;;;;;;4.18;2.67;;;;;;;;;;4974829;28;20030;-83
2021/09/13 08:58:55;;;;;;;5.28;2.60;;;;;;;;;;4974666;28;20085;-85
2021/09/13 09:01:21;;;;;;;4.05;2.67;;;;;;;;;;4974165;28;20027;-88
2021/09/13 09:03:48;;;;;;;2.88;2.22;;;;;;;;;;4974428;28;20058;-85
2021/09/13 09:06:31;;;;;;;3.78;2.20;;;;;;;;;;4974466;28;20566;-87
2021/09/13 09:09:07;;;;;;;5.70;2.53;;;;;;;;;;4973931;28;20027;-86
2021/09/13 09:12:01;;;;;;;3.55;2.30;;;;;;;;;;4974183;28;20026;-85
2021/09/13 09:14:33;;;;;;;5.90;2.63;;;;;;;;;;4973823;28;20035;-84
2021/09/13 09:17:29;;;;;;;5.60;2.70;;;;;;;;;;4974051;28;20019;-84
2021/09/13 09:20:02;;;;;;;4.35;2.63;;;;;;;;;;4958081;28;20089;-84
2021/09/13 09:22:29;;;;;;;3.10;2.58;;;;;;;;;;4974046;28;20078;-84
2021/09/13 09:24:56;;;;;;;4.05;2.58;;;;;;;;;;4973937;28;20107;-84
2021/09/13 09:27:23;;;;;;;2.90;2.20;;;;;;;;;;4974624;28;20050;-83
2021/09/13 09:29:49;;;;;;;5.93;2.65;;;;;;;;;;4974371;28;20035;-88
2021/09/13 09:32:23;;;;;;;6.20;2.80;;;;;;;;;;4973916;28;20118;-84
2021/09/13 09:34:50;;;;;;;3.60;2.55;;;;;;;;;;4973755;28;20030;-86
2021/09/13 09:37:16;;;;;;;5.20;2.65;;;;;;;;;;4974733;28;20034;-86
2021/09/13 09:39:49;;;;;;;4.35;3.08;;;;;;;;;;4974268;28;20365;-85
2021/09/13 09:42:28;;;;;;;5.60;3.00;;;;;;;;;;4974092;28;20027;-83
2021/09/13 09:44:54;;;;;;;6.50;2.97;;;;;;;;;;4974719;28;20054;-81
2021/09/13 09:47:21;;;;;;;8.73;3.08;;;;;;;;;;4973797;28;20031;-86
2021/09/13 09:49:51;;;;;;;4.57;3.00;;;;;;;;;;4973664;28;20062;-82
2021/09/13 09:52:37;;;;;;;3.47;2.10;;;;;;;;;;4973689;28;20376;-83
2021/09/13 09:55:16;;;;;;;5.30;2.67;;;;;;;;;;4973254;28;20121;-81
2021/09/13 09:57:46;;;;;;;4.95;2.90;;;;;;;;;;4973280;28;20126;-85
2021/09/13 10:00:23;;;;;;;5.43;2.40;;;;;;;;;;4976014;28;20031;-86
2021/09/13 10:02:49;;;;;;;3.55;1.88;;;;;;;;;;4979837;28;20525;-83
2021/09/13 10:05:15;;;;;;;3.28;1.60;;;;;;;;;;4979946;28;20027;-85
2021/09/13 10:07:44;;;;;;;2.95;1.50;;;;;;;;;;4979863;28;20038;-82
2021/09/13 10:10:10;;;;;;;5.20;1.58;;;;;;;;;;4979850;28;20030;-85
2021/09/13 10:12:37;;;;;;;3.05;1.58;;;;;;;;;;4979713;28;20029;-80
2021/09/13 10:15:04;;;;;;;4.10;1.40;;;;;;;;;;4979525;28;20058;-80
2021/09/13 10:17:31;;;;;;;4.05;1.50;;;;;;;;;;4981157;28;20349;-85
2021/09/13 10:19:57;;;;;;;3.17;1.42;;;;;;;;;;4979724;28;20035;-80
2021/09/13 10:22:24;;;;;;;2.78;1.42;;;;;;;;;;4979846;28;20054;-86
2021/09/13 10:24:51;;;;;;;2.00;1.25;;;;;;;;;;4980065;28;20027;-86
2021/09/13 10:27:20;;;;;;;2.33;1.40;;;;;;;;;;4980238;28;20023;-81
2021/09/13 10:29:46;;;;;;;3.10;1.85;;;;;;;;;;4979768;28;20023;-80
2021/09/13 10:32:13;;;;;;;3.80;1.33;;;;;;;;;;4979886;28;20027;-84
2021/09/13 10:34:43;;;;;;;2.03;1.33;;;;;;;;;;4983022;28;20058;-82
2021/09/13 10:37:20;;;;;;;2.67;1.30;;;;;;;;;;4979753;28;20391;-85
2021/09/13 10:39:49;;;;;;;3.60;1.45;;;;;;;;;;4981069;28;20364;-82
2021/09/13 10:42:34;;;;;;;2.72;1.42;;;;;;;;;;4981117;28;20050;-87
2021/09/13 10:45:04;;;;;;;2.13;1.20;;;;;;;;;;4979573;28;20390;-84
2021/09/13 10:47:30;;;;;;;4.82;1.40;;;;;;;;;;4979441;28;20081;-86
2021/09/13 10:50:15;;;;;;;3.03;1.40;;;;;;;;;;4979763;28;20030;-83
2021/09/13 10:52:42;;;;;;;2.10;1.30;;;;;;;;;;4979454;28;20057;-81
2021/09/13 10:55:08;;;;;;;2.33;1.42;;;;;;;;;;4980502;28;20046;-84
2021/09/13 10:57:53;;;;;;;3.28;1.55;;;;;;;;;;4979216;28;20434;-83
2021/09/13 11:00:41;;;;;;;2.45;1.50;;;;;;;;;;4979266;28;20502;-83
2021/09/13 11:03:29;;;;;;;3.25;1.42;;;;;;;;;;4980794;28;20116;-90
2021/09/13 11:06:03;;;;;;;2.13;1.27;;;;;;;;;;4983306;28;20031;-91
2021/09/13 11:08:29;;;;;;;2.70;1.35;;;;;;;;;;4981703;28;20038;-90
2021/09/13 11:10:55;;;;;;;1.40;0.85;;;;;;;;;;4980411;28;20109;-90
2021/09/13 11:13:21;;;;;;;2.00;1.30;;;;;;;;;;4976448;28;20031;-89
2021/09/13 11:15:48;;;;;;;1.80;1.20;;;;;;;;;;4977601;28;20030;-81
2021/09/13 11:18:30;;;;;;;2.53;1.30;;;;;;;;;;4976017;28;20045;-84
2021/09/13 11:20:57;;;;;;;2.15;1.30;;;;;;;;;;4975850;28;20479;-82
2021/09/13 11:23:33;;;;;;;2.42;1.30;;;;;;;;;;4977284;28;20432;-84
2021/09/13 11:26:00;;;;;;;2.17;1.42;;;;;;;;;;4975976;28;20023;-84
2021/09/13 11:28:26;;;;;;;6.65;1.73;;;;;;;;;;4977343;28;20356;-84
2021/09/13 11:30:53;;;;;;;3.90;1.55;;;;;;;;;;4977046;28;20101;-81
2021/09/13 11:33:19;;;;;;;2.85;1.58;;;;;;;;;;4976001;28;20026;-83
2021/09/13 11:35:45;;;;;;;6.15;1.73;;;;;;;;;;4975830;28;20476;-84
2021/09/13 11:38:12;;;;;;;4.25;1.60;;;;;;;;;;4975579;28;20042;-83
2021/09/13 11:40:38;;;;;;;2.67;1.48;;;;;;;;;;4977002;28;20077;-82
2021/09/13 11:43:09;;;;;;;3.10;1.77;;;;;;;;;;4975573;28;20157;-83
2021/09/13 11:45:35;;;;;;;2.95;1.90;;;;;;;;;;4975543;28;20023;-83
2021/09/13 11:48:07;;;;;;;2.88;1.83;;;;;;;;;;4975431;28;20042;-83
2021/09/13 11:50:36;;;;;;;3.28;1.92;;;;;;;;;;4975441;28;20089;-82
2021/09/13 11:53:12;;;;;;;3.08;2.10;;;;;;;;;;4975273;28;20027;-81
2021/09/13 11:55:38;;;;;;;3.15;1.77;;;;;;;;;;4975317;28;20098;-82
2021/09/13 11:58:07;;;;;;;2.95;1.80;;;;;;;;;;4975197;28;20054;-83
2021/09/13 12:00:37;;;;;;;4.60;2.00;;;;;;;;;;4975261;28;20455;-83
2021/09/13 12:03:04;;;;;;;3.53;2.00;;;;;;;;;;4974682;28;20082;-82
2021/09/13 12:05:38;;;;;;;3.33;2.03;;;;;;;;;;4974993;28;20523;-82
2021/09/13 12:08:07;;;;;;;5.30;1.85;;;;;;;;;;4975212;28;20082;-80
2021/09/13 12:10:34;;;;;;;2.97;1.80;;;;;;;;;;4974876;28;20109;-84
2021/09/13 12:13:10;;;;;;;3.45;1.52;;;;;;;;;;4959319;28;20502;-83
2021/09/13 12:15:37;;;;;;;4.22;2.22;;;;;;;;;;4975138;28;20034;-83
2021/09/13 12:18:04;;;;;;;2.95;1.75;;;;;;;;;;4974932;28;20066;-81
2021/09/13 12:20:31;;;;;;;3.83;1.98;;;;;;;;;;4974947;28;20027;-84
2021/09/13 12:23:05;;;;;;;3.45;1.70;;;;;;;;;;4974787;28;20127;-82
2021/09/13 12:25:39;;;;;;;3.75;1.80;;;;;;;;;;4975619;28;20400;-86
2021/09/13 12:28:05;;;;;;;3.03;1.60;;;;;;;;;;4977335;28;20034;-86
2021/09/13 12:30:35;;;;;;;3.97;2.00;;;;;;;;;;4974920;28;20038;-86
2021/09/13 12:33:03;;;;;;;2.67;1.42;;;;;;;;;;4974955;28;20026;-84
2021/09/13 12:35:40;;;;;;;2.47;1.60;;;;;;;;;;4974861;28;20391;-84
2021/09/13 12:38:16;;;;;;;2.83;1.45;;;;;;;;;;4975826;28;20118;-83
2021/09/13 12:41:02;;;;;;;9.32;1.83;;;;;;;;;;4974999;28;20019;-83
2021/09/13 12:43:29;;;;;;;3.33;1.65;;;;;;;;;;4974170;28;20395;-79
2021/09/13 12:46:08;;;;;;;3.22;1.55;;;;;;;;;;4975810;28;20098;-83
2021/09/13 12:48:39;;;;;;;2.45;1.38;;;;;;;;;;4975651;28;20387;-83
2021/09/13 12:51:06;;;;;;;20.45;1.90;;;;;;;;;;4974240;28;20031;-83
2021/09/13 12:53:32;;;;;;;5.85;1.50;;;;;;;;;;4974001;28;20384;-84
2021/09/13 12:56:00;;;;;;;3.45;1.67;;;;;;;;;;4974158;28;20114;-81
2021/09/13 12:58:27;;;;;;;2.70;1.55;;;;;;;;;;4975338;28;20043;-83
2021/09/13 13:00:54;;;;;;;4.25;1.80;;;;;;;;;;4974087;28;20045;-84
2021/09/13 13:03:20;;;;;;;2.63;1.55;;;;;;;;;;4973841;28;20046;-80
2021/09/13 13:05:52;;;;;;;2.30;1.60;;;;;;;;;;4974039;28;20480;-81
2021/09/13 13:08:20;;;;;;;3.47;1.80;;;;;;;;;;4973869;28;20472;-81
2021/09/13 13:10:46;;;;;;;3.22;2.00;;;;;;;;;;4973795;28;20050;-83
2021/09/13 13:13:12;;;;;;;2.83;1.42;;;;;;;;;;4973866;28;20037;-81
2021/09/13 13:15:38;;;;;;;4.65;1.85;;;;;;;;;;4973776;28;20034;-81
2021/09/13 13:18:18;;;;;;;3.00;1.52;;;;;;;;;;4973773;28;20031;-81
2021/09/13 13:20:45;;;;;;;3.45;1.70;;;;;;;;;;4973843;28;20041;-82
2021/09/13 13:23:11;;;;;;;2.75;1.45;;;;;;;;;;4973630;28;20033;-82
2021/09/13 13:25:39;;;;;;;2.75;1.80;;;;;;;;;;4974892;28;20106;-81
2021/09/13 13:28:08;;;;;;;2.70;1.50;;;;;;;;;;4973619;28;20022;-82
2021/09/13 13:30:35;;;;;;;2.63;1.60;;;;;;;;;;4973757;28;20497;-81
2021/09/13 13:33:01;;;;;;;2.85;1.40;;;;;;;;;;4973534;28;20027;-82
2021/09/13 13:35:27;;;;;;;2.88;1.35;;;;;;;;;;4973166;28;20073;-82
2021/09/13 13:37:54;;;;;;;2.42;1.58;;;;;;;;;;4973472;28;20045;-81
2021/09/13 13:40:20;;;;;;;1.95;1.42;;;;;;;;;;4974759;28;20018;-80
2021/09/13 13:42:46;;;;;;;6.10;1.55;;;;;;;;;;4974800;28;20031;-81
2021/09/13 13:45:12;;;;;;;2.25;1.20;;;;;;;;;;4974913;28;20022;-81
2021/09/13 13:47:42;;;;;;;5.05;1.58;;;;;;;;;;4974404;28;20118;-80
2021/09/13 13:50:08;;;;;;;2.47;1.65;;;;;;;;;;4973270;28;20031;-81
2021/09/13 13:52:35;;;;;;;6.43;1.90;;;;;;;;;;4973392;28;20089;-80
2021/09/13 13:55:01;;;;;;;3.78;1.33;;;;;;;;;;4973056;28;20499;-80
2021/09/13 13:57:29;;;;;;;2.95;1.33;;;;;;;;;;4974538;28;20034;-82
2021/09/13 13:59:55;;;;;;;6.10;1.60;;;;;;;;;;4973436;28;20113;-81
2021/09/13 14:02:21;;;;;;;3.10;1.52;;;;;;;;;;4973134;28;20090;-81
2021/09/13 14:04:48;;;;;;;2.40;1.23;;;;;;;;;;4973344;28;20023;-81
2021/09/13 14:07:15;;;;;;;3.00;1.60;;;;;;;;;;4973230;28;20094;-81
2021/09/13 14:09:41;;;;;;;2.47;1.50;;;;;;;;;;4973276;28;20027;-80
2021/09/13 14:12:07;;;;;;;2.88;1.77;;;;;;;;;;4973196;28;20035;-80
2021/09/13 14:14:33;;;;;;;3.60;1.73;;;;;;;;;;4973184;28;20023;-80
2021/09/13 14:16:59;;;;;;;4.10;2.00;;;;;;;;;;4973082;28;20031;-83
2021/09/13 14:19:26;;;;;;;3.10;1.95;;;;;;;;;;4973152;28;20042;-81
2021/09/13 14:21:52;;;;;;;4.00;2.30;;;;;;;;;;4973121;28;20472;-81
2021/09/13 14:24:18;;;;;;;2.70;1.67;;;;;;;;;;4981142;28;20034;-84
2021/09/13 14:26:45;;;;;;;3.50;2.10;;;;;;;;;;4992214;28;20026;-82
2021/09/13 14:29:11;;;;;;;3.10;1.90;;;;;;;;;;4993976;28;20030;-84
2021/09/13 14:31:37;;;;;;;2.92;1.67;;;;;;;;;;4992684;28;20132;-82
2021/09/13 14:34:03;;;;;;;3.40;1.85;;;;;;;;;;4992224;28;20061;-86
2021/09/13 14:36:30;;;;;;;8.10;2.00;;;;;;;;;;4993406;28;20077;-82
2021/09/13 14:38:56;;;;;;;3.20;2.00;;;;;;;;;;4992296;28;20093;-82
2021/09/13 14:41:22;;;;;;;4.20;2.03;;;;;;;;;;4993570;28;20046;-84
2021/09/13 14:43:48;;;;;;;3.42;2.00;;;;;;;;;;4992337;28;20037;-82